Time;durP1;ratioP1;P1;durP2;ratioP2;P2;SDS_P1;SDS_P2;PMS_P1;PMS_P2;Temp;Humidity;BMP_temperature;BMP_pressure;BME280_temperature;BME280_humidity;BME280_pressure;Samples;Min_cycle;Max_cycle;Signal;HPM_P1;HPM_P2
2022/09/28 00:01:19;;;;;;;3.08;2.77;;;;;;;12.82;75.92;99448.67;1706248;83;21091;-92
2022/09/28 00:03:47;;;;;;;4.97;3.05;;;;;;;12.83;75.95;99441.17;1700800;83;21071;-93
2022/09/28 00:06:17;;;;;;;4.40;3.15;;;;;;;12.82;76.02;99441.62;1703879;82;21074;-84
2022/09/28 00:08:44;;;;;;;4.78;3.02;;;;;;;12.80;76.12;99449.09;1709272;82;21048;-92
2022/09/28 00:11:14;;;;;;;4.33;3.12;;;;;;;12.76;76.19;99444.30;1738135;82;21841;-92
2022/09/28 00:13:41;;;;;;;3.47;3.17;;;;;;;12.75;76.28;99439.89;1737424;82;21107;-85
2022/09/28 00:16:12;;;;;;;5.42;3.17;;;;;;;12.74;76.29;99426.69;1710005;82;21063;-92
2022/09/28 00:18:39;;;;;;;3.42;2.70;;;;;;;12.69;76.28;99432.43;1738950;82;21063;-85
2022/09/28 00:21:13;;;;;;;4.47;3.15;;;;;;;12.68;76.43;99433.33;1714610;82;21068;-85
2022/09/28 00:24:17;;;;;;;4.33;3.20;;;;;;;12.66;76.42;99433.34;1725141;82;21754;-85
2022/09/28 00:26:48;;;;;;;3.58;2.80;;;;;;;12.63;76.46;99429.37;1694747;83;21111;-85
2022/09/28 00:29:32;;;;;;;4.33;3.15;;;;;;;12.62;76.52;99418.40;1708227;83;21135;-85
2022/09/28 00:32:02;;;;;;;3.40;3.00;;;;;;;12.61;76.62;99424.13;1724891;82;21080;-86
2022/09/28 00:34:44;;;;;;;5.40;3.15;;;;;;;12.59;76.66;99417.98;1732435;82;21092;-85
2022/09/28 00:37:17;;;;;;;4.35;3.10;;;;;;;12.59;76.73;99412.70;1720162;82;21781;-93
2022/09/28 00:39:47;;;;;;;5.15;3.08;;;;;;;12.58;76.73;99417.53;1715034;82;21059;-92
2022/09/28 00:42:20;;;;;;;5.53;3.27;;;;;;;12.56;76.79;99421.95;1723107;82;21064;-92
2022/09/28 00:44:50;;;;;;;3.55;3.22;;;;;;;12.56;76.87;99418.44;1708763;82;21072;-92
2022/09/28 00:47:48;;;;;;;4.58;3.30;;;;;;;12.57;76.86;99411.80;1694141;83;21585;-93
2022/09/28 00:50:22;;;;;;;3.62;2.83;;;;;;;12.57;76.92;99408.30;1694707;84;22042;-86
2022/09/28 00:52:54;;;;;;;3.52;3.00;;;;;;;12.56;76.93;99405.23;1648585;85;21082;-86
2022/09/28 00:55:43;;;;;;;4.95;3.60;;;;;;;12.56;77.02;99406.56;1710716;82;21087;-93
2022/09/28 00:58:13;;;;;;;4.33;3.42;;;;;;;12.55;77.05;99401.70;1718527;82;21032;-85
2022/09/28 01:00:39;;;;;;;4.08;3.58;;;;;;;12.56;77.09;99408.75;1698407;82;21060;-92
2022/09/28 01:03:26;;;;;;;4.60;3.52;;;;;;;12.57;77.12;99414.89;1705885;83;22429;-92
2022/09/28 01:05:55;;;;;;;4.22;3.45;;;;;;;12.56;77.13;99409.20;1731512;82;21559;-92
2022/09/28 01:08:22;;;;;;;5.35;3.67;;;;;;;12.55;77.18;99406.11;1710105;82;21095;-85
2022/09/28 01:10:49;;;;;;;4.70;3.67;;;;;;;12.56;77.27;99403.47;1701702;82;21044;-92
2022/09/28 01:13:22;;;;;;;4.85;3.67;;;;;;;12.55;77.19;99401.70;1726620;82;21071;-93
2022/09/28 01:16:10;;;;;;;5.60;3.72;;;;;;;12.54;77.24;99402.60;1721158;82;21791;-93
2022/09/28 01:19:16;;;;;;;4.35;3.72;;;;;;;12.53;77.27;99404.80;1720968;82;21110;-92
2022/09/28 01:22:05;;;;;;;4.97;3.90;;;;;;;12.52;77.42;99401.73;1723931;82;21128;-92
2022/09/28 01:24:42;;;;;;;4.05;3.42;;;;;;;12.51;77.34;99394.69;1707359;82;21670;-92
2022/09/28 01:27:14;;;;;;;3.90;3.20;;;;;;;12.49;77.33;99392.95;1711312;83;21056;-92
2022/09/28 01:29:56;;;;;;;4.55;3.45;;;;;;;12.44;77.40;99396.49;1730749;82;21850;-85
2022/09/28 01:32:57;;;;;;;4.47;3.72;;;;;;;12.43;77.46;99395.17;1710856;82;21031;-92
2022/09/28 01:35:36;;;;;;;4.00;3.55;;;;;;;12.44;77.56;99398.23;1710144;82;21048;-93
2022/09/28 01:38:17;;;;;;;4.62;3.52;;;;;;;12.44;77.58;99398.23;1734837;82;21143;-92
2022/09/28 01:40:44;;;;;;;7.08;3.77;;;;;;;12.46;77.70;99400.42;1726494;82;21098;-85
2022/09/28 01:43:19;;;;;;;4.10;3.70;;;;;;;12.46;77.66;99397.78;1709860;82;21755;-85
2022/09/28 01:46:00;;;;;;;4.65;3.87;;;;;;;12.48;77.66;99400.42;1678371;84;21036;-93
2022/09/28 01:48:38;;;;;;;5.65;4.03;;;;;;;12.44;77.66;99389.89;1704758;84;21142;-86
2022/09/28 01:51:10;;;;;;;4.85;3.62;;;;;;;12.43;77.74;99381.53;1658287;85;21064;-93
2022/09/28 01:53:43;;;;;;;4.08;3.67;;;;;;;12.43;77.73;99385.94;1634474;87;21087;-92
2022/09/28 01:56:14;;;;;;;4.97;3.85;;;;;;;12.44;77.80;99381.08;1689122;84;22665;-93
2022/09/28 01:58:56;;;;;;;4.87;4.25;;;;;;;12.45;77.88;99377.56;1639282;87;21083;-94
2022/09/28 02:02:00;;;;;;;5.20;3.80;;;;;;;12.46;77.95;99374.03;1695296;84;21083;-85
2022/09/28 02:04:38;;;;;;;8.25;4.42;;;;;;;12.39;77.90;99361.32;1689640;84;21078;-93
2022/09/28 02:07:12;;;;;;;5.65;4.15;;;;;;;12.44;77.90;99378.02;1650955;85;21454;-91
2022/09/28 02:09:46;;;;;;;7.05;4.62;;;;;;;12.44;77.90;99373.16;1631506;86;22630;-85
2022/09/28 02:12:26;;;;;;;5.92;4.22;;;;;;;12.44;77.98;99378.02;1677303;84;22131;-85
2022/09/28 02:14:54;;;;;;;6.75;4.97;;;;;;;12.44;77.93;99373.16;1674188;85;21148;-94
2022/09/28 02:17:21;;;;;;;5.30;4.62;;;;;;;12.44;78.00;99375.80;1676098;85;21041;-94
2022/09/28 02:20:08;;;;;;;6.17;4.67;;;;;;;12.44;78.08;99370.52;1651792;85;21700;-94
2022/09/28 02:22:42;;;;;;;6.65;4.85;;;;;;;12.44;78.08;99369.20;1702945;83;22595;-86
2022/09/28 02:28:19;;;;;;;6.28;4.65;;;;;;;12.41;78.19;99358.23;1671470;83;20461;-86
2022/09/28 02:31:31;;;;;;;5.78;4.80;;;;;;;12.42;78.17;99367.02;1687801;84;21589;-93
2022/09/28 02:33:59;;;;;;;10.88;5.90;;;;;;;12.40;78.17;99364.38;1691137;83;21091;-86
2022/09/28 02:36:48;;;;;;;7.53;5.33;;;;;;;12.38;78.18;99360.00;1691307;84;21765;-94
2022/09/28 02:39:16;;;;;;;7.00;5.20;;;;;;;12.38;78.30;99360.00;1704276;84;21587;-86
2022/09/28 02:42:06;;;;;;;6.45;5.05;;;;;;;12.38;78.29;99359.55;1678605;83;21068;-86
2022/09/28 02:45:18;;;;;;;7.20;5.00;;;;;;;12.36;78.29;99356.05;1642105;86;21049;-87
2022/09/28 02:48:09;;;;;;;5.83;5.12;;;;;;;12.36;78.31;99362.64;1670537;85;21048;-86
2022/09/28 02:51:43;;;;;;;5.65;4.95;;;;;;;12.36;78.39;99357.36;1740583;82;21805;-94
2022/09/28 02:54:38;;;;;;;6.95;4.97;;;;;;;12.36;78.39;99349.91;1740322;82;21043;-93
2022/09/28 02:57:48;;;;;;;6.55;5.42;;;;;;;12.36;78.42;99353.41;1718024;83;21059;-87
2022/09/28 03:00:21;;;;;;;6.12;5.03;;;;;;;12.36;78.46;99356.50;1707960;82;21134;-86
2022/09/28 03:03:19;;;;;;;5.72;5.10;;;;;;;12.34;78.49;99359.59;1707232;83;21285;-86
2022/09/28 03:06:23;;;;;;;8.30;4.97;;;;;;;12.34;78.57;99360.91;1734191;82;21734;-86
2022/09/28 03:12:46;;;;;;;9.50;5.58;;;;;;;12.34;78.57;99365.73;1615481;87;21657;-86
2022/09/28 03:15:26;;;;;;;6.60;5.35;;;;;;;12.32;78.64;99358.72;1595617;89;21084;-86
2022/09/28 03:18:31;;;;;;;6.90;5.58;;;;;;;12.31;78.71;99367.50;1594868;89;21075;-95
2022/09/28 03:20:59;;;;;;;8.85;5.58;;;;;;;12.30;78.71;99361.36;1593334;89;22639;-87
2022/09/28 03:23:49;;;;;;;6.08;5.47;;;;;;;12.28;78.72;99365.77;1570989;91;21083;-94
2022/09/28 03:26:26;;;;;;;8.68;5.72;;;;;;;12.28;78.80;99363.58;1550551;91;21110;-93
2022/09/28 03:33:05;;;;;;;7.80;6.35;;;;;;;12.28;78.95;99362.27;1550688;91;21184;-85
2022/09/28 03:35:28;;;;;;;7.90;6.03;;;;;;;12.26;78.96;99364.91;1568615;90;22013;-85
2022/09/28 03:37:57;;;;;;;7.05;5.47;;;;;;;12.23;78.99;99360.49;1585505;89;21096;-85
2022/09/28 03:40:24;;;;;;;5.85;5.15;;;;;;;12.23;79.06;99356.54;1588251;90;21257;-90
2022/09/28 03:42:52;;;;;;;5.72;5.10;;;;;;;12.23;79.15;99351.27;1581305;90;21832;-92
2022/09/28 03:50:03;;;;;;;9.38;5.58;;;;;;;12.22;79.17;99348.66;1604764;86;21273;-93
2022/09/28 03:52:30;;;;;;;7.05;5.65;;;;;;;12.22;79.23;99345.56;1677460;84;21033;-85
2022/09/28 03:54:57;;;;;;;7.75;6.15;;;;;;;12.20;79.25;99344.70;1660230;84;21126;-90
2022/09/28 03:58:03;;;;;;;7.87;6.45;;;;;;;12.21;79.29;99344.25;1696790;84;21087;-84
2022/09/28 04:00:30;;;;;;;7.47;6.45;;;;;;;12.21;79.27;99338.97;1681719;83;21557;-92
2022/09/28 04:02:57;;;;;;;7.80;6.47;;;;;;;12.20;79.35;99335.88;1679375;84;21773;-92
2022/09/28 04:05:24;;;;;;;8.33;6.60;;;;;;;12.19;79.36;99327.10;1667266;84;21033;-86
2022/09/28 04:07:52;;;;;;;8.23;6.47;;;;;;;12.19;79.40;99332.38;1686083;84;21091;-88
2022/09/28 04:10:19;;;;;;;7.78;5.78;;;;;;;12.21;79.40;99335.02;1662889;84;21668;-93
2022/09/28 04:12:55;;;;;;;7.42;6.17;;;;;;;12.22;79.41;99332.83;1683560;83;21063;-93
2022/09/28 04:15:23;;;;;;;8.83;5.87;;;;;;;12.21;79.42;99325.78;1673396;85;22655;-85
2022/09/28 04:17:58;;;;;;;7.75;6.25;;;;;;;12.20;79.44;99326.66;1682966;84;21131;-86
2022/09/28 04:20:25;;;;;;;10.95;7.92;;;;;;;12.21;79.51;99329.29;1682319;84;21075;-84
2022/09/28 04:22:51;;;;;;;11.70;8.60;;;;;;;12.20;79.46;99327.55;1676123;85;21078;-87
2022/09/28 04:25:18;;;;;;;12.45;10.03;;;;;;;12.19;79.47;99313.05;1680417;85;21106;-85
2022/09/28 04:30:33;;;;;;;12.75;10.72;;;;;;;12.18;79.51;99311.27;1669225;83;21079;-86
2022/09/28 04:33:00;;;;;;;11.63;10.43;;;;;;;12.17;79.58;99311.73;1691162;84;21154;-88
2022/09/28 04:35:27;;;;;;;14.20;11.38;;;;;;;12.17;79.62;99309.55;1681096;84;21066;-85
2022/09/28 04:37:54;;;;;;;12.33;10.72;;;;;;;12.16;79.63;99308.67;1678636;83;21095;-88
2022/09/28 04:40:24;;;;;;;12.05;10.03;;;;;;;12.19;79.73;99313.05;1683395;84;21801;-88
2022/09/28 04:42:55;;;;;;;9.65;8.65;;;;;;;12.20;79.74;99306.45;1677153;83;21083;-86
2022/09/28 04:45:24;;;;;;;11.40;8.63;;;;;;;12.25;79.80;99307.73;1690148;84;21083;-86
2022/09/28 04:47:51;;;;;;;14.70;8.98;;;;;;;12.24;79.70;99309.95;1694201;82;21075;-83
2022/09/28 04:50:18;;;;;;;8.25;7.45;;;;;;;12.25;79.74;99313.00;1700455;83;21068;-85
2022/09/28 04:52:45;;;;;;;9.88;7.50;;;;;;;12.27;79.80;99310.37;1705432;83;21755;-86
2022/09/28 04:55:13;;;;;;;11.43;7.90;;;;;;;12.28;79.82;99312.13;1702149;83;21039;-83
2022/09/28 04:57:49;;;;;;;10.10;7.92;;;;;;;12.29;79.82;99311.23;1675866;84;21040;-84
2022/09/28 05:00:16;;;;;;;9.48;7.53;;;;;;;12.29;79.76;99304.64;1672989;84;21064;-85
2022/09/28 05:02:44;;;;;;;10.70;7.97;;;;;;;12.27;79.73;99309.92;1708780;84;21055;-83
2022/09/28 05:05:11;;;;;;;10.90;8.03;;;;;;;12.18;79.76;99288.86;1696152;82;22644;-84
2022/09/28 05:07:40;;;;;;;13.75;8.60;;;;;;;12.27;79.80;99308.59;1691679;82;21139;-83
2022/09/28 05:10:07;;;;;;;12.98;8.03;;;;;;;12.28;79.86;99306.86;1706263;82;21095;-85
2022/09/28 05:12:34;;;;;;;15.60;8.90;;;;;;;12.29;79.85;99313.42;1682346;82;21580;-87
2022/09/28 05:15:01;;;;;;;12.28;8.05;;;;;;;12.28;79.88;99311.69;1707637;83;21647;-86
2022/09/28 05:17:28;;;;;;;12.90;8.25;;;;;;;12.27;79.87;99313.00;1709372;82;22468;-83
2022/09/28 05:19:55;;;;;;;10.08;7.87;;;;;;;12.27;79.89;99308.59;1697565;83;22299;-91
2022/09/28 05:22:22;;;;;;;8.00;7.20;;;;;;;12.29;79.96;99309.91;1681262;84;21595;-84
2022/09/28 05:25:17;;;;;;;8.73;7.17;;;;;;;12.29;79.84;99308.59;1680066;84;21066;-93
2022/09/28 05:27:43;;;;;;;9.53;7.00;;;;;;;12.24;79.83;99304.67;1680192;83;21145;-85
2022/09/28 05:30:30;;;;;;;7.65;6.90;;;;;;;12.25;79.96;99307.73;1680293;85;21665;-90
2022/09/28 05:32:59;;;;;;;9.43;7.55;;;;;;;12.27;79.92;99309.05;1701842;83;21040;-86
2022/09/28 05:35:27;;;;;;;8.78;7.15;;;;;;;12.27;80.09;99308.59;1675129;84;21091;-84
2022/09/28 05:37:54;;;;;;;8.05;6.83;;;;;;;12.30;80.02;99309.05;1693280;83;21619;-84
2022/09/28 05:40:21;;;;;;;7.92;6.67;;;;;;;12.29;80.00;99299.36;1683568;83;21167;-84
2022/09/28 05:42:48;;;;;;;8.05;6.65;;;;;;;12.29;79.92;99306.83;1654348;83;21798;-84
2022/09/28 05:45:15;;;;;;;8.20;7.15;;;;;;;12.28;79.97;99303.77;1635111;86;21242;-84
2022/09/28 05:47:45;;;;;;;8.73;7.75;;;;;;;12.28;80.01;99308.18;1654921;85;21655;-84
2022/09/28 05:54:53;;;;;;;9.60;7.97;;;;;;;12.23;79.89;99301.14;1709614;83;21032;-89
2022/09/28 05:57:21;;;;;;;10.25;8.05;;;;;;;12.29;80.16;99302.86;1705937;83;21826;-85
2022/09/28 06:00:26;;;;;;;9.33;7.95;;;;;;;12.32;80.08;99303.31;1671548;83;21274;-90
2022/09/28 06:02:57;;;;;;;8.93;7.55;;;;;;;12.32;80.07;99303.31;1680603;84;21070;-85
2022/09/28 06:05:38;;;;;;;10.45;8.10;;;;;;;12.30;80.11;99305.95;1705985;83;21588;-89
2022/09/28 06:08:09;;;;;;;9.48;8.55;;;;;;;12.30;80.10;99305.09;1705181;83;21027;-85
2022/09/28 06:10:36;;;;;;;11.57;10.20;;;;;;;12.34;80.22;99298.91;1719351;83;21775;-84
2022/09/28 06:13:27;;;;;;;18.05;11.45;;;;;;;12.35;80.15;99298.90;1694584;84;21663;-89
2022/09/28 06:16:03;;;;;;;8.78;7.65;;;;;;;12.38;80.14;99296.67;1706546;83;21099;-84
2022/09/28 06:18:29;;;;;;;8.75;7.58;;;;;;;12.37;80.09;99294.91;1676947;85;21054;-90
2022/09/28 06:20:56;;;;;;;8.13;6.78;;;;;;;12.39;80.05;99294.48;1682601;85;21451;-84
2022/09/28 06:23:23;;;;;;;7.50;6.10;;;;;;;12.41;80.06;99294.89;1715726;82;21753;-84
2022/09/28 06:25:50;;;;;;;8.90;6.40;;;;;;;12.43;80.05;99291.80;1713312;83;21752;-84
2022/09/28 06:28:22;;;;;;;6.30;4.87;;;;;;;12.48;79.92;99297.49;1677446;85;21890;-89
2022/09/28 06:30:48;;;;;;;5.40;4.42;;;;;;;12.50;79.83;99297.03;1674459;85;21042;-85
2022/09/28 06:33:15;;;;;;;4.05;3.65;;;;;;;12.50;79.63;99295.30;1712335;83;21104;-84
2022/09/28 06:39:37;;;;;;;5.20;4.67;;;;;;;12.52;79.52;99288.24;1710115;83;21028;-91
2022/09/28 06:42:14;;;;;;;6.08;4.35;;;;;;;12.55;79.46;99293.93;1710270;83;21016;-89
2022/09/28 06:49:17;;;;;;;7.33;5.67;;;;;;;12.56;79.42;99291.29;1719819;82;21644;-89
2022/09/28 06:51:45;;;;;;;12.93;9.08;;;;;;;12.54;79.38;99290.88;1714624;82;22025;-85
2022/09/28 06:54:12;;;;;;;9.25;6.65;;;;;;;12.55;79.40;99292.16;1739259;82;21122;-85
2022/09/28 06:56:39;;;;;;;21.82;12.70;;;;;;;12.56;79.44;99291.74;1730208;82;21059;-84
2022/09/28 06:59:06;;;;;;;19.77;11.68;;;;;;;12.58;79.50;99289.97;1720781;82;21047;-85
2022/09/28 07:01:32;;;;;;;13.18;8.60;;;;;;;12.62;79.46;99291.69;1726417;82;21631;-84
2022/09/28 07:08:00;;;;;;;12.13;9.58;;;;;;;12.63;79.32;99294.33;1670391;85;21588;-84
2022/09/28 07:11:15;;;;;;;131.80;47.25;;;;;;;12.65;79.21;99293.00;1722492;82;21580;-88
2022/09/28 07:13:42;;;;;;;;;;;;;;;12.66;79.17;99295.19;1743563;82;21560;-89
2022/09/28 07:16:11;;;;;;;10.48;7.25;;;;;;;12.66;79.15;99296.05;1740238;82;20275;-84
2022/09/28 07:18:37;;;;;;;11.40;6.45;;;;;;;12.62;79.02;99295.65;1719466;82;21696;-89
2022/09/28 07:21:06;;;;;;;6.85;4.85;;;;;;;12.62;79.18;99292.56;1701240;84;21581;-85
2022/09/28 07:24:04;;;;;;;10.43;4.85;;;;;;;12.63;79.19;99299.61;1700591;84;21052;-90
2022/09/28 07:26:32;;;;;;;12.43;6.47;;;;;;;12.67;79.23;99299.56;1701049;84;21740;-84
2022/09/28 07:28:59;;;;;;;18.07;8.40;;;;;;;12.72;79.20;99301.73;1722315;82;21114;-89
2022/09/28 07:31:26;;;;;;;11.78;6.08;;;;;;;12.77;79.25;99302.14;1730109;82;21719;-84
2022/09/28 07:34:02;;;;;;;15.10;9.40;;;;;;;12.82;79.21;99296.84;1710771;83;21033;-89
2022/09/28 07:36:34;;;;;;;14.58;8.70;;;;;;;12.88;79.24;99305.16;1689758;83;21579;-89
2022/09/28 07:39:11;;;;;;;8.43;5.42;;;;;;;12.93;79.13;99301.59;1710519;83;21072;-89
2022/09/28 07:41:38;;;;;;;9.05;4.67;;;;;;;12.93;79.09;99300.28;1713665;82;21055;-90
2022/09/28 07:45:03;;;;;;;6.85;4.25;;;;;;;13.02;79.24;99300.17;1740802;82;21842;-89
2022/09/28 07:47:30;;;;;;;;;;;;;;;13.10;79.10;99301.45;1728016;82;21059;-85
2022/09/28 07:49:57;;;;;;;6.25;3.75;;;;;;;13.15;78.92;99302.72;1734472;82;20206;-85
2022/09/28 07:52:25;;;;;;;3.55;3.25;;;;;;;13.17;78.88;99305.77;1727442;82;21568;-85
2022/09/28 07:55:33;;;;;;;4.40;3.22;;;;;;;13.19;78.95;99308.41;1702481;82;21078;-90
2022/09/28 07:58:03;;;;;;;5.53;3.50;;;;;;;13.27;78.92;99303.05;1714274;82;22495;-89
2022/09/28 08:00:31;;;;;;;5.40;3.17;;;;;;;13.30;78.83;99302.61;1714940;82;21058;-85
2022/09/28 08:03:02;;;;;;;4.97;3.47;;;;;;;13.40;78.95;99300.75;1700238;84;21669;-86
2022/09/28 08:05:30;;;;;;;5.40;3.55;;;;;;;13.47;78.80;99305.55;1719080;82;21656;-85
2022/09/28 08:08:35;;;;;;;5.17;4.17;;;;;;;13.54;78.62;99301.95;1708973;83;21055;-89
2022/09/28 08:11:02;;;;;;;7.20;4.47;;;;;;;13.56;78.50;99307.64;1710679;82;21741;-85
2022/09/28 08:13:29;;;;;;;8.88;4.90;;;;;;;13.60;78.23;99299.23;1725025;82;21043;-85
2022/09/28 08:22:47;;;;;;;5.58;4.37;;;;;;;13.74;78.07;99305.27;1735704;82;21229;-87
2022/09/28 08:25:21;;;;;;;5.20;4.67;;;;;;;13.83;78.02;99293.68;1673083;83;21792;-86
2022/09/28 08:27:49;;;;;;;5.17;4.67;;;;;;;13.87;77.83;99290.56;1697980;82;21044;-86
2022/09/28 08:30:16;;;;;;;5.42;4.28;;;;;;;13.92;77.91;99291.39;1696663;84;21042;-86
2022/09/28 08:32:51;;;;;;;5.12;4.35;;;;;;;14.00;77.68;99290.84;1712577;82;21070;-86
2022/09/28 08:35:15;;;;;;;5.10;4.15;;;;;;;14.01;77.48;99291.28;1719150;82;21075;-91
2022/09/28 08:37:42;;;;;;;5.75;4.65;;;;;;;14.09;77.56;99293.37;1673227;82;22167;-92
2022/09/28 08:40:15;;;;;;;5.08;4.25;;;;;;;14.16;77.27;99296.83;1740682;82;21039;-87
2022/09/28 08:42:43;;;;;;;7.92;4.83;;;;;;;14.21;77.20;99308.23;1739776;82;21043;-84
2022/09/28 08:45:54;;;;;;;6.92;4.00;;;;;;;14.33;77.22;99313.81;1731751;82;21145;-91
2022/09/28 08:51:51;;;;;;;4.33;3.80;;;;;;;14.60;76.98;99313.02;1739509;82;21898;-91
2022/09/28 08:58:22;;;;;;;5.80;4.90;;;;;;;14.83;76.57;99317.97;1746060;82;22029;-90
2022/09/28 09:01:38;;;;;;;5.47;4.03;;;;;;;14.83;76.00;99314.89;1720977;82;21635;-90
2022/09/28 09:04:05;;;;;;;4.92;4.00;;;;;;;14.76;75.79;99313.23;1716233;82;21064;-86
2022/09/28 09:10:37;;;;;;;5.15;4.70;;;;;;;14.91;75.92;99312.98;1722002;83;21020;-89
2022/09/28 09:13:32;;;;;;;4.78;4.33;;;;;;;15.00;75.56;99314.63;1721777;82;21063;-84
2022/09/28 09:16:30;;;;;;;4.30;3.87;;;;;;;14.99;75.34;99318.62;1717743;82;21354;-84
2022/09/28 09:19:16;;;;;;;4.03;3.40;;;;;;;14.98;75.25;99313.78;1697104;83;21058;-84
2022/09/28 09:34:35;;;;;;;4.25;3.80;;;;;;;14.92;74.43;99316.08;1717238;83;21617;-89
2022/09/28 09:41:42;;;;;;;4.40;4.00;;;;;;;14.99;73.95;99317.30;1721543;83;21103;-90
2022/09/28 09:51:53;;;;;;;6.25;4.33;;;;;;;14.90;73.50;99311.68;1711507;83;21072;-89
2022/09/28 09:54:31;;;;;;;4.30;3.80;;;;;;;14.87;73.36;99309.97;1715347;82;21420;-84
2022/09/28 10:01:07;;;;;;;5.20;4.67;;;;;;;14.92;73.36;99314.75;1716478;82;21040;-88
2022/09/28 10:03:35;;;;;;;6.67;5.00;;;;;;;14.88;73.13;99309.05;1716655;83;21094;-89
2022/09/28 10:06:06;;;;;;;5.60;5.10;;;;;;;14.95;73.10;99318.66;1718546;82;21135;-85
2022/09/28 10:13:08;;;;;;;5.50;4.85;;;;;;;14.90;72.78;99327.58;1716553;83;21001;-89
2022/09/28 10:15:35;;;;;;;5.37;4.87;;;;;;;14.90;72.70;99319.20;1715655;82;21156;-86
2022/09/28 10:18:28;;;;;;;6.28;5.35;;;;;;;14.88;72.76;99320.97;1715792;83;21519;-89
2022/09/28 10:20:56;;;;;;;9.28;8.30;;;;;;;14.87;72.67;99323.21;1722050;82;21572;-85
2022/09/28 10:23:27;;;;;;;6.47;4.62;;;;;;;14.85;72.54;99324.15;1719999;81;21539;-85
2022/09/28 10:42:12;;;;;;;3.40;3.10;;;;;;;15.09;72.43;99334.78;1718379;83;21019;-88
2022/09/28 10:45:08;;;;;;;3.52;3.22;;;;;;;15.29;72.23;99337.98;1721205;82;21926;-85
2022/09/28 10:47:37;;;;;;;3.90;3.50;;;;;;;15.41;71.65;99335.59;1714729;83;21534;-86
2022/09/28 10:50:12;;;;;;;3.00;2.58;;;;;;;15.55;71.47;99340.64;1723800;81;21213;-85
2022/09/28 10:53:12;;;;;;;;;;;;;;;15.71;71.04;99335.48;1711063;82;21063;-89
2022/09/28 10:55:39;;;;;;;2.55;2.35;;;;;;;15.74;70.62;99335.44;1719841;82;20235;-85
2022/09/28 10:58:28;;;;;;;3.42;2.70;;;;;;;15.67;69.75;99341.76;1714361;82;21796;-90
2022/09/28 11:01:01;;;;;;;3.87;2.37;;;;;;;15.63;69.75;99344.48;1708704;81;21118;-89
2022/09/28 11:03:28;;;;;;;;;;;;;;;15.69;69.62;99335.08;1713317;83;21051;-85
2022/09/28 11:06:06;;;;;;;4.95;2.37;;;;;;;15.80;69.51;99339.76;1712921;82;20218;-89
2022/09/28 11:08:39;;;;;;;5.08;4.53;;;;;;;15.84;69.56;99340.58;1711682;83;21055;-89
2022/09/28 11:11:15;;;;;;;4.62;3.35;;;;;;;15.85;69.38;99347.19;1711104;82;21866;-89
2022/09/28 11:13:46;;;;;;;4.87;3.25;;;;;;;15.88;69.25;99345.81;1710738;82;21060;-90
2022/09/28 11:16:29;;;;;;;8.95;3.55;;;;;;;15.86;69.15;99348.95;1712491;82;21074;-85
2022/09/28 11:18:58;;;;;;;4.62;4.12;;;;;;;15.89;69.04;99352.85;1713964;82;21072;-85
2022/09/28 11:21:30;;;;;;;6.97;5.90;;;;;;;16.01;69.01;99351.77;1716783;82;21099;-85
2022/09/28 11:24:04;;;;;;;3.95;2.87;;;;;;;16.11;68.75;99344.48;1709918;82;21848;-85
2022/09/28 11:26:58;;;;;;;7.78;6.30;;;;;;;16.18;68.70;99345.22;1740177;82;27374;-88
2022/09/28 11:29:42;;;;;;;6.60;5.00;;;;;;;16.31;68.54;99350.69;1716528;82;21090;-86
2022/09/28 11:32:15;;;;;;;6.20;5.60;;;;;;;16.61;68.50;99342.55;1711178;82;21057;-91
2022/09/28 11:34:43;;;;;;;8.28;6.50;;;;;;;16.82;67.74;99338.98;1714376;81;21142;-86
2022/09/28 11:37:53;;;;;;;5.28;3.87;;;;;;;16.97;67.37;99341.74;1714716;83;21768;-92
2022/09/28 11:40:34;;;;;;;6.87;5.95;;;;;;;17.10;67.00;99341.89;1713058;82;21460;-86
2022/09/28 11:43:16;;;;;;;18.62;14.28;;;;;;;17.12;66.48;99338.74;1714888;81;21063;-86
2022/09/28 11:46:04;;;;;;;8.30;6.70;;;;;;;17.13;66.12;99339.61;1715185;81;21102;-86
2022/09/28 11:48:41;;;;;;;6.50;4.78;;;;;;;17.21;66.12;99333.20;1659505;84;21540;-86
2022/09/28 11:51:22;;;;;;;11.30;7.08;;;;;;;17.21;65.78;99337.19;1691339;83;21999;-90
2022/09/28 11:58:57;;;;;;;7.33;5.12;;;;;;;17.20;64.90;99341.21;1714549;83;21029;-90
2022/09/28 12:01:52;;;;;;;9.93;6.92;;;;;;;17.18;64.60;99329.73;1731390;81;21047;-85
2022/09/28 12:04:38;;;;;;;4.28;3.30;;;;;;;17.04;63.94;99318.09;1745919;82;21321;-89
2022/09/28 12:07:24;;;;;;;11.20;5.85;;;;;;;16.95;63.84;99323.20;1713568;82;21087;-85
2022/09/28 12:10:02;;;;;;;10.00;5.50;;;;;;;17.00;63.95;99329.25;1711280;82;21127;-85
2022/09/28 12:12:33;;;;;;;13.75;7.62;;;;;;;16.98;63.44;99328.89;1714183;82;21058;-85
2022/09/28 12:15:17;;;;;;;6.85;3.72;;;;;;;16.84;63.01;99325.23;1711939;83;21111;-85
2022/09/28 12:17:55;;;;;;;11.03;5.37;;;;;;;16.76;62.93;99328.47;1667636;83;21138;-85
2022/09/28 12:20:26;;;;;;;9.68;4.87;;;;;;;16.66;62.87;99328.69;1736509;81;21757;-89
2022/09/28 12:23:36;;;;;;;15.53;7.75;;;;;;;16.66;62.98;99334.00;1761894;81;21187;-90
2022/09/28 12:26:41;;;;;;;33.50;13.80;;;;;;;16.77;62.88;99328.45;1761844;81;21007;-90
2022/09/28 12:29:14;;;;;;;20.88;8.83;;;;;;;16.94;62.54;99331.20;1750993;81;21604;-85
2022/09/28 12:32:25;;;;;;;26.05;10.75;;;;;;;17.03;62.08;99329.19;1736965;81;21070;-85
2022/09/28 12:43:03;;;;;;;15.08;7.50;;;;;;;17.29;61.23;99328.55;1705068;82;21640;-85
2022/09/28 12:46:13;;;;;;;6.47;3.70;;;;;;;17.00;60.83;99334.57;1694074;83;21678;-85
2022/09/28 12:52:54;;;;;;;9.05;4.53;;;;;;;16.82;61.25;99331.91;1601743;87;21651;-85
2022/09/28 12:55:42;;;;;;;4.67;3.55;;;;;;;17.01;61.54;99337.66;1724305;82;21106;-85
2022/09/28 12:58:37;;;;;;;10.88;7.15;;;;;;;17.11;61.09;99330.33;1720664;82;21102;-85
2022/09/28 13:01:18;;;;;;;4.67;4.03;;;;;;;17.14;60.97;99328.94;1694621;83;22412;-85
2022/09/28 13:04:47;;;;;;;5.42;3.52;;;;;;;17.27;61.09;99330.84;1720325;83;21103;-91
2022/09/28 13:07:24;;;;;;;2.47;1.90;;;;;;;17.41;60.99;99337.13;1708157;83;22635;-87
2022/09/28 13:10:11;;;;;;;2.67;2.27;;;;;;;17.51;60.58;99329.31;1667726;85;21079;-85
2022/09/28 13:13:22;;;;;;;3.58;2.60;;;;;;;17.42;59.86;99329.58;1704640;83;21129;-86
2022/09/28 13:16:16;;;;;;;4.90;2.40;;;;;;;17.28;59.84;99330.78;1706170;83;21054;-92
2022/09/28 13:19:00;;;;;;;2.55;1.92;;;;;;;17.27;59.99;99330.37;1703590;83;21095;-85
2022/09/28 13:21:42;;;;;;;6.55;1.90;;;;;;;17.14;59.71;99330.27;1683202;83;21848;-87
2022/09/28 13:24:25;;;;;;;3.55;1.70;;;;;;;17.06;59.99;99337.11;1685491;84;21589;-87
2022/09/28 13:26:53;;;;;;;;;;;;;;;17.06;59.92;99342.42;1703465;83;21084;-86
2022/09/28 13:29:20;;;;;;;2.08;1.80;;;;;;;17.10;59.57;99335.25;1666960;83;20570;-86
2022/09/28 13:31:52;;;;;;;2.75;1.65;;;;;;;17.08;59.50;99339.73;1692935;84;21153;-86
2022/09/28 13:34:49;;;;;;;2.58;1.80;;;;;;;17.04;59.54;99340.26;1694810;84;21759;-91
2022/09/28 13:41:09;;;;;;;1.95;1.82;;;;;;;16.78;58.69;99339.94;1703067;83;21063;-87
2022/09/28 13:44:07;;;;;;;1.95;1.60;;;;;;;16.55;58.61;99345.78;1688255;84;21035;-87
2022/09/28 13:47:08;;;;;;;1.60;1.50;;;;;;;16.50;58.70;99348.09;1706201;83;21071;-93
2022/09/28 13:50:05;;;;;;;2.00;1.65;;;;;;;16.45;58.65;99343.78;1706586;83;21809;-93
2022/09/28 13:53:26;;;;;;;2.15;1.50;;;;;;;16.36;58.87;99346.63;1710727;83;21094;-94
2022/09/28 13:56:18;;;;;;;2.55;1.65;;;;;;;16.32;58.67;99351.13;1698980;83;21050;-86
2022/09/28 13:58:59;;;;;;;3.22;1.92;;;;;;;16.18;58.50;99357.16;1704062;84;21072;-86
2022/09/28 14:01:39;;;;;;;2.10;1.72;;;;;;;16.09;58.69;99356.92;1706619;83;21084;-86
2022/09/28 14:04:38;;;;;;;3.40;2.20;;;;;;;16.04;58.48;99361.44;1704906;83;21810;-86
2022/09/28 14:07:40;;;;;;;5.08;3.95;;;;;;;15.88;58.49;99359.54;1712398;82;21516;-92
2022/09/28 14:10:23;;;;;;;5.00;3.35;;;;;;;15.77;58.48;99357.55;1705492;83;21166;-86
2022/09/28 14:14:04;;;;;;;5.03;2.80;;;;;;;15.70;58.59;99363.36;1667611;83;21100;-93
2022/09/28 14:20:31;;;;;;;20.62;12.28;;;;;;;15.56;59.01;99363.63;1725693;83;21204;-86
2022/09/28 14:23:28;;;;;;;6.33;5.35;;;;;;;15.44;59.01;99365.14;1651411;84;21020;-86
2022/09/28 14:26:35;;;;;;;5.10;4.22;;;;;;;15.38;59.04;99369.23;1716450;83;21270;-91
2022/09/28 14:29:31;;;;;;;8.20;2.92;;;;;;;15.28;58.91;99372.50;1626291;83;21632;-86
2022/09/28 14:32:04;;;;;;;4.20;2.55;;;;;;;15.16;58.79;99373.55;1699144;83;21028;-88